sensor_id;sensor_type;location;lat;lon;timestamp;P1;durP1;ratioP1;P2;durP2;ratioP2
42662;SDS011;44330;51.360;6.686;2023-06-26T00:02:15;12.65;;;7.72;;
42662;SDS011;44330;51.360;6.686;2023-06-26T00:04:42;8.82;;;7.72;;
42662;SDS011;44330;51.360;6.686;2023-06-26T00:07:08;9.10;;;7.57;;
42662;SDS011;44330;51.360;6.686;2023-06-26T00:09:34;12.23;;;6.88;;
42662;SDS011;44330;51.360;6.686;2023-06-26T00:11:59;11.60;;;7.53;;
42662;SDS011;44330;51.360;6.686;2023-06-26T00:14:25;10.38;;;7.53;;
42662;SDS011;44330;51.360;6.686;2023-06-26T00:16:51;9.73;;;6.82;;
42662;SDS011;44330;51.360;6.686;2023-06-26T00:19:17;11.88;;;8.13;;
42662;SDS011;44330;51.360;6.686;2023-06-26T00:21:43;9.95;;;7.72;;
42662;SDS011;44330;51.360;6.686;2023-06-26T00:24:13;8.02;;;6.70;;
42662;SDS011;44330;51.360;6.686;2023-06-26T00:26:39;9.45;;;7.43;;
42662;SDS011;44330;51.360;6.686;2023-06-26T00:29:04;10.20;;;7.40;;
42662;SDS011;44330;51.360;6.686;2023-06-26T00:31:30;12.38;;;7.30;;
42662;SDS011;44330;51.360;6.686;2023-06-26T00:33:55;9.35;;;7.45;;
42662;SDS011;44330;51.360;6.686;2023-06-26T00:36:21;13.60;;;7.40;;
42662;SDS011;44330;51.360;6.686;2023-06-26T00:38:48;12.35;;;7.43;;
42662;SDS011;44330;51.360;6.686;2023-06-26T00:41:14;9.55;;;7.03;;
42662;SDS011;44330;51.360;6.686;2023-06-26T00:43:40;14.82;;;7.57;;
42662;SDS011;44330;51.360;6.686;2023-06-26T00:46:08;9.27;;;6.95;;
42662;SDS011;44330;51.360;6.686;2023-06-26T00:48:34;12.13;;;7.07;;
42662;SDS011;44330;51.360;6.686;2023-06-26T00:51:00;11.75;;;8.02;;
42662;SDS011;44330;51.360;6.686;2023-06-26T00:53:26;10.68;;;7.05;;
42662;SDS011;44330;51.360;6.686;2023-06-26T00:55:52;13.15;;;7.72;;
42662;SDS011;44330;51.360;6.686;2023-06-26T00:58:19;12.32;;;8.68;;
42662;SDS011;44330;51.360;6.686;2023-06-26T01:00:46;13.43;;;7.40;;
42662;SDS011;44330;51.360;6.686;2023-06-26T01:03:12;12.98;;;7.93;;
42662;SDS011;44330;51.360;6.686;2023-06-26T01:05:38;12.15;;;7.65;;
42662;SDS011;44330;51.360;6.686;2023-06-26T01:08:03;10.00;;;8.30;;
42662;SDS011;44330;51.360;6.686;2023-06-26T01:10:29;11.35;;;8.25;;
42662;SDS011;44330;51.360;6.686;2023-06-26T01:12:56;12.75;;;8.02;;
42662;SDS011;44330;51.360;6.686;2023-06-26T01:15:22;11.60;;;8.52;;
42662;SDS011;44330;51.360;6.686;2023-06-26T01:17:47;11.10;;;7.70;;
42662;SDS011;44330;51.360;6.686;2023-06-26T01:20:15;10.60;;;8.27;;
42662;SDS011;44330;51.360;6.686;2023-06-26T01:22:48;11.93;;;8.60;;
42662;SDS011;44330;51.360;6.686;2023-06-26T01:28:14;13.90;;;8.00;;
42662;SDS011;44330;51.360;6.686;2023-06-26T01:30:42;12.13;;;8.00;;
42662;SDS011;44330;51.360;6.686;2023-06-26T01:33:10;9.20;;;7.83;;
42662;SDS011;44330;51.360;6.686;2023-06-26T01:35:37;10.10;;;7.97;;
42662;SDS011;44330;51.360;6.686;2023-06-26T01:38:13;11.88;;;7.55;;
42662;SDS011;44330;51.360;6.686;2023-06-26T01:40:40;13.45;;;8.23;;
42662;SDS011;44330;51.360;6.686;2023-06-26T01:43:06;10.98;;;8.68;;
42662;SDS011;44330;51.360;6.686;2023-06-26T01:45:50;11.57;;;8.35;;
42662;SDS011;44330;51.360;6.686;2023-06-26T01:48:21;12.88;;;8.43;;
42662;SDS011;44330;51.360;6.686;2023-06-26T01:50:51;9.60;;;8.02;;
42662;SDS011;44330;51.360;6.686;2023-06-26T01:53:18;14.38;;;8.52;;
42662;SDS011;44330;51.360;6.686;2023-06-26T01:56:05;12.15;;;8.27;;
42662;SDS011;44330;51.360;6.686;2023-06-26T01:58:33;11.60;;;7.60;;
42662;SDS011;44330;51.360;6.686;2023-06-26T02:01:00;9.88;;;8.13;;
42662;SDS011;44330;51.360;6.686;2023-06-26T02:03:26;11.23;;;8.25;;
42662;SDS011;44330;51.360;6.686;2023-06-26T02:05:51;12.15;;;8.02;;
42662;SDS011;44330;51.360;6.686;2023-06-26T02:08:17;12.23;;;8.55;;
42662;SDS011;44330;51.360;6.686;2023-06-26T02:10:43;11.63;;;8.75;;
42662;SDS011;44330;51.360;6.686;2023-06-26T02:13:08;12.02;;;7.43;;
42662;SDS011;44330;51.360;6.686;2023-06-26T02:15:34;11.98;;;8.38;;
42662;SDS011;44330;51.360;6.686;2023-06-26T02:17:59;13.98;;;8.13;;
42662;SDS011;44330;51.360;6.686;2023-06-26T02:20:25;11.90;;;8.18;;
42662;SDS011;44330;51.360;6.686;2023-06-26T02:22:50;11.88;;;8.75;;
42662;SDS011;44330;51.360;6.686;2023-06-26T02:25:17;8.60;;;7.45;;
42662;SDS011;44330;51.360;6.686;2023-06-26T02:27:43;10.05;;;7.18;;
42662;SDS011;44330;51.360;6.686;2023-06-26T02:30:08;10.27;;;7.38;;
42662;SDS011;44330;51.360;6.686;2023-06-26T02:32:34;10.75;;;7.88;;
42662;SDS011;44330;51.360;6.686;2023-06-26T02:35:00;10.00;;;7.30;;
42662;SDS011;44330;51.360;6.686;2023-06-26T02:37:26;10.18;;;7.60;;
42662;SDS011;44330;51.360;6.686;2023-06-26T02:39:51;12.35;;;7.20;;
42662;SDS011;44330;51.360;6.686;2023-06-26T02:42:17;13.63;;;8.00;;
42662;SDS011;44330;51.360;6.686;2023-06-26T02:44:42;9.88;;;7.10;;
42662;SDS011;44330;51.360;6.686;2023-06-26T02:47:08;12.15;;;7.32;;
42662;SDS011;44330;51.360;6.686;2023-06-26T02:49:33;12.68;;;7.53;;
42662;SDS011;44330;51.360;6.686;2023-06-26T02:51:59;13.73;;;8.50;;
42662;SDS011;44330;51.360;6.686;2023-06-26T02:54:24;11.98;;;7.50;;
42662;SDS011;44330;51.360;6.686;2023-06-26T02:56:50;10.40;;;7.07;;
42662;SDS011;44330;51.360;6.686;2023-06-26T02:59:16;12.75;;;7.65;;
42662;SDS011;44330;51.360;6.686;2023-06-26T03:01:41;12.30;;;6.80;;
42662;SDS011;44330;51.360;6.686;2023-06-26T03:04:07;9.48;;;6.53;;
42662;SDS011;44330;51.360;6.686;2023-06-26T03:06:33;11.50;;;7.13;;
42662;SDS011;44330;51.360;6.686;2023-06-26T03:08:58;11.27;;;7.22;;
42662;SDS011;44330;51.360;6.686;2023-06-26T03:11:24;10.20;;;6.60;;
42662;SDS011;44330;51.360;6.686;2023-06-26T03:13:49;8.15;;;6.85;;
42662;SDS011;44330;51.360;6.686;2023-06-26T03:16:15;11.35;;;7.70;;
42662;SDS011;44330;51.360;6.686;2023-06-26T03:18:40;9.73;;;7.22;;
42662;SDS011;44330;51.360;6.686;2023-06-26T03:21:06;10.40;;;7.63;;
42662;SDS011;44330;51.360;6.686;2023-06-26T03:23:31;9.80;;;7.57;;
42662;SDS011;44330;51.360;6.686;2023-06-26T03:25:57;10.35;;;6.50;;
42662;SDS011;44330;51.360;6.686;2023-06-26T03:28:22;11.15;;;7.13;;
42662;SDS011;44330;51.360;6.686;2023-06-26T03:30:48;9.55;;;7.00;;
42662;SDS011;44330;51.360;6.686;2023-06-26T03:33:13;12.13;;;7.43;;
42662;SDS011;44330;51.360;6.686;2023-06-26T03:35:39;14.70;;;7.95;;
42662;SDS011;44330;51.360;6.686;2023-06-26T03:38:05;15.73;;;8.15;;
42662;SDS011;44330;51.360;6.686;2023-06-26T03:40:30;11.18;;;7.43;;
42662;SDS011;44330;51.360;6.686;2023-06-26T03:42:56;13.70;;;8.05;;
42662;SDS011;44330;51.360;6.686;2023-06-26T03:45:22;15.45;;;7.43;;
42662;SDS011;44330;51.360;6.686;2023-06-26T03:47:47;11.80;;;7.43;;
42662;SDS011;44330;51.360;6.686;2023-06-26T03:50:15;12.93;;;7.75;;
42662;SDS011;44330;51.360;6.686;2023-06-26T03:52:40;9.30;;;7.13;;
42662;SDS011;44330;51.360;6.686;2023-06-26T03:55:06;15.52;;;7.90;;
42662;SDS011;44330;51.360;6.686;2023-06-26T03:57:32;18.23;;;8.10;;
42662;SDS011;44330;51.360;6.686;2023-06-26T03:59:58;13.75;;;8.05;;
42662;SDS011;44330;51.360;6.686;2023-06-26T04:02:23;9.55;;;7.70;;
42662;SDS011;44330;51.360;6.686;2023-06-26T04:04:49;11.60;;;6.85;;
42662;SDS011;44330;51.360;6.686;2023-06-26T04:07:14;10.70;;;7.65;;
42662;SDS011;44330;51.360;6.686;2023-06-26T04:09:40;11.60;;;7.40;;
42662;SDS011;44330;51.360;6.686;2023-06-26T04:12:06;12.25;;;7.70;;
42662;SDS011;44330;51.360;6.686;2023-06-26T04:14:31;12.32;;;8.52;;
42662;SDS011;44330;51.360;6.686;2023-06-26T04:16:57;8.38;;;7.32;;
42662;SDS011;44330;51.360;6.686;2023-06-26T04:19:26;10.60;;;7.65;;
42662;SDS011;44330;51.360;6.686;2023-06-26T04:21:52;9.50;;;7.60;;
42662;SDS011;44330;51.360;6.686;2023-06-26T04:24:17;14.25;;;7.95;;
42662;SDS011;44330;51.360;6.686;2023-06-26T04:26:43;11.68;;;7.90;;
42662;SDS011;44330;51.360;6.686;2023-06-26T04:29:10;14.38;;;8.30;;
42662;SDS011;44330;51.360;6.686;2023-06-26T04:31:35;12.68;;;8.10;;
42662;SDS011;44330;51.360;6.686;2023-06-26T04:34:01;11.10;;;7.45;;
42662;SDS011;44330;51.360;6.686;2023-06-26T04:36:27;7.88;;;6.53;;
42662;SDS011;44330;51.360;6.686;2023-06-26T04:38:53;11.55;;;6.68;;
42662;SDS011;44330;51.360;6.686;2023-06-26T04:41:19;14.45;;;6.30;;
42662;SDS011;44330;51.360;6.686;2023-06-26T04:43:45;10.68;;;6.22;;
42662;SDS011;44330;51.360;6.686;2023-06-26T04:46:10;9.00;;;6.28;;
42662;SDS011;44330;51.360;6.686;2023-06-26T04:48:36;14.20;;;6.00;;
42662;SDS011;44330;51.360;6.686;2023-06-26T04:51:01;11.80;;;6.63;;
42662;SDS011;44330;51.360;6.686;2023-06-26T04:53:27;8.40;;;5.43;;
42662;SDS011;44330;51.360;6.686;2023-06-26T04:55:53;9.20;;;5.82;;
42662;SDS011;44330;51.360;6.686;2023-06-26T04:58:18;10.98;;;5.90;;
42662;SDS011;44330;51.360;6.686;2023-06-26T05:00:44;5.95;;;4.78;;
42662;SDS011;44330;51.360;6.686;2023-06-26T05:03:13;9.20;;;5.30;;
42662;SDS011;44330;51.360;6.686;2023-06-26T05:05:42;8.40;;;5.70;;
42662;SDS011;44330;51.360;6.686;2023-06-26T05:08:14;11.02;;;5.35;;
42662;SDS011;44330;51.360;6.686;2023-06-26T05:10:41;8.15;;;5.10;;
42662;SDS011;44330;51.360;6.686;2023-06-26T05:13:07;11.60;;;5.32;;
42662;SDS011;44330;51.360;6.686;2023-06-26T05:15:32;12.00;;;6.07;;
42662;SDS011;44330;51.360;6.686;2023-06-26T05:17:58;7.07;;;4.75;;
42662;SDS011;44330;51.360;6.686;2023-06-26T05:20:23;10.50;;;5.63;;
42662;SDS011;44330;51.360;6.686;2023-06-26T05:22:49;14.55;;;5.53;;
42662;SDS011;44330;51.360;6.686;2023-06-26T05:25:15;8.38;;;5.07;;
42662;SDS011;44330;51.360;6.686;2023-06-26T05:27:40;10.27;;;5.38;;
42662;SDS011;44330;51.360;6.686;2023-06-26T05:30:06;5.80;;;4.40;;
42662;SDS011;44330;51.360;6.686;2023-06-26T05:32:34;8.30;;;5.68;;
42662;SDS011;44330;51.360;6.686;2023-06-26T05:35:01;9.30;;;5.68;;
42662;SDS011;44330;51.360;6.686;2023-06-26T05:37:28;13.98;;;5.45;;
42662;SDS011;44330;51.360;6.686;2023-06-26T05:39:55;8.00;;;5.07;;
42662;SDS011;44330;51.360;6.686;2023-06-26T05:42:21;7.55;;;4.75;;
42662;SDS011;44330;51.360;6.686;2023-06-26T05:44:47;12.40;;;5.63;;
42662;SDS011;44330;51.360;6.686;2023-06-26T05:47:13;14.27;;;5.10;;
42662;SDS011;44330;51.360;6.686;2023-06-26T05:49:38;10.35;;;5.13;;
42662;SDS011;44330;51.360;6.686;2023-06-26T05:52:04;11.95;;;5.72;;
42662;SDS011;44330;51.360;6.686;2023-06-26T05:54:30;10.35;;;5.18;;
42662;SDS011;44330;51.360;6.686;2023-06-26T05:56:56;14.10;;;4.85;;
42662;SDS011;44330;51.360;6.686;2023-06-26T05:59:26;12.55;;;6.05;;
42662;SDS011;44330;51.360;6.686;2023-06-26T06:01:51;10.98;;;5.70;;
42662;SDS011;44330;51.360;6.686;2023-06-26T06:04:17;10.73;;;5.10;;
42662;SDS011;44330;51.360;6.686;2023-06-26T06:06:43;13.20;;;5.22;;
42662;SDS011;44330;51.360;6.686;2023-06-26T06:09:09;12.48;;;5.35;;
42662;SDS011;44330;51.360;6.686;2023-06-26T06:11:34;16.67;;;5.65;;
42662;SDS011;44330;51.360;6.686;2023-06-26T06:14:00;11.52;;;5.28;;
42662;SDS011;44330;51.360;6.686;2023-06-26T06:16:26;11.70;;;5.55;;
42662;SDS011;44330;51.360;6.686;2023-06-26T06:18:54;16.30;;;6.32;;
42662;SDS011;44330;51.360;6.686;2023-06-26T06:21:19;11.32;;;4.88;;
42662;SDS011;44330;51.360;6.686;2023-06-26T06:23:45;9.75;;;5.30;;
42662;SDS011;44330;51.360;6.686;2023-06-26T06:26:11;13.70;;;5.32;;
42662;SDS011;44330;51.360;6.686;2023-06-26T06:28:37;9.50;;;5.57;;
42662;SDS011;44330;51.360;6.686;2023-06-26T06:31:03;12.30;;;4.95;;
42662;SDS011;44330;51.360;6.686;2023-06-26T06:33:29;15.98;;;5.93;;
42662;SDS011;44330;51.360;6.686;2023-06-26T06:35:55;12.32;;;6.05;;
42662;SDS011;44330;51.360;6.686;2023-06-26T06:38:20;12.48;;;6.07;;
42662;SDS011;44330;51.360;6.686;2023-06-26T06:40:46;14.07;;;5.82;;
42662;SDS011;44330;51.360;6.686;2023-06-26T06:43:11;10.60;;;5.32;;
42662;SDS011;44330;51.360;6.686;2023-06-26T06:45:37;16.48;;;5.25;;
42662;SDS011;44330;51.360;6.686;2023-06-26T06:48:03;11.40;;;5.82;;
42662;SDS011;44330;51.360;6.686;2023-06-26T06:50:29;12.20;;;5.47;;
42662;SDS011;44330;51.360;6.686;2023-06-26T06:52:55;12.15;;;5.43;;
42662;SDS011;44330;51.360;6.686;2023-06-26T06:55:20;12.55;;;5.75;;
42662;SDS011;44330;51.360;6.686;2023-06-26T06:57:46;14.32;;;4.88;;
42662;SDS011;44330;51.360;6.686;2023-06-26T07:00:12;12.85;;;5.25;;
42662;SDS011;44330;51.360;6.686;2023-06-26T07:02:42;15.93;;;5.25;;
42662;SDS011;44330;51.360;6.686;2023-06-26T07:05:09;13.77;;;6.07;;
42662;SDS011;44330;51.360;6.686;2023-06-26T07:07:36;14.50;;;5.30;;
42662;SDS011;44330;51.360;6.686;2023-06-26T07:10:04;15.07;;;6.03;;
42662;SDS011;44330;51.360;6.686;2023-06-26T07:12:34;10.95;;;5.97;;
42662;SDS011;44330;51.360;6.686;2023-06-26T07:15:00;12.35;;;6.05;;
42662;SDS011;44330;51.360;6.686;2023-06-26T07:17:26;15.40;;;5.65;;
42662;SDS011;44330;51.360;6.686;2023-06-26T07:19:52;19.00;;;6.25;;
42662;SDS011;44330;51.360;6.686;2023-06-26T07:22:17;10.88;;;6.05;;
42662;SDS011;44330;51.360;6.686;2023-06-26T07:24:45;14.90;;;6.00;;
42662;SDS011;44330;51.360;6.686;2023-06-26T07:27:16;17.45;;;5.68;;
42662;SDS011;44330;51.360;6.686;2023-06-26T07:29:44;15.25;;;6.25;;
42662;SDS011;44330;51.360;6.686;2023-06-26T07:32:10;13.98;;;6.00;;
42662;SDS011;44330;51.360;6.686;2023-06-26T07:34:36;15.27;;;5.70;;
42662;SDS011;44330;51.360;6.686;2023-06-26T07:37:01;18.85;;;5.60;;
42662;SDS011;44330;51.360;6.686;2023-06-26T07:39:27;15.63;;;5.82;;
42662;SDS011;44330;51.360;6.686;2023-06-26T07:41:52;13.73;;;6.78;;
42662;SDS011;44330;51.360;6.686;2023-06-26T07:44:18;13.13;;;5.38;;
42662;SDS011;44330;51.360;6.686;2023-06-26T07:46:43;13.75;;;6.03;;
42662;SDS011;44330;51.360;6.686;2023-06-26T07:49:12;12.85;;;5.53;;
42662;SDS011;44330;51.360;6.686;2023-06-26T07:51:38;17.92;;;5.47;;
42662;SDS011;44330;51.360;6.686;2023-06-26T07:54:04;14.35;;;4.88;;
42662;SDS011;44330;51.360;6.686;2023-06-26T07:56:29;18.20;;;6.15;;
42662;SDS011;44330;51.360;6.686;2023-06-26T07:58:55;13.63;;;5.53;;
42662;SDS011;44330;51.360;6.686;2023-06-26T08:01:23;18.08;;;5.20;;
42662;SDS011;44330;51.360;6.686;2023-06-26T08:03:49;11.05;;;4.80;;
42662;SDS011;44330;51.360;6.686;2023-06-26T08:06:15;12.07;;;5.53;;
42662;SDS011;44330;51.360;6.686;2023-06-26T08:08:40;16.63;;;6.32;;
42662;SDS011;44330;51.360;6.686;2023-06-26T08:11:06;18.60;;;5.45;;
42662;SDS011;44330;51.360;6.686;2023-06-26T08:13:31;22.30;;;5.47;;
42662;SDS011;44330;51.360;6.686;2023-06-26T08:15:57;12.27;;;4.95;;
42662;SDS011;44330;51.360;6.686;2023-06-26T08:18:23;11.52;;;4.68;;
42662;SDS011;44330;51.360;6.686;2023-06-26T08:20:48;19.77;;;4.97;;
42662;SDS011;44330;51.360;6.686;2023-06-26T08:23:14;17.83;;;5.07;;
42662;SDS011;44330;51.360;6.686;2023-06-26T08:25:39;13.10;;;4.10;;
42662;SDS011;44330;51.360;6.686;2023-06-26T08:28:05;11.32;;;4.45;;
42662;SDS011;44330;51.360;6.686;2023-06-26T08:30:31;12.23;;;4.28;;
42662;SDS011;44330;51.360;6.686;2023-06-26T08:32:57;12.68;;;4.43;;
42662;SDS011;44330;51.360;6.686;2023-06-26T08:35:23;14.98;;;4.30;;
42662;SDS011;44330;51.360;6.686;2023-06-26T08:37:48;15.25;;;4.22;;
42662;SDS011;44330;51.360;6.686;2023-06-26T08:40:16;10.25;;;3.83;;
42662;SDS011;44330;51.360;6.686;2023-06-26T08:42:43;10.75;;;4.25;;
42662;SDS011;44330;51.360;6.686;2023-06-26T08:45:09;14.50;;;4.32;;
42662;SDS011;44330;51.360;6.686;2023-06-26T08:47:35;14.82;;;4.35;;
42662;SDS011;44330;51.360;6.686;2023-06-26T08:50:12;13.07;;;3.92;;
42662;SDS011;44330;51.360;6.686;2023-06-26T08:52:53;7.18;;;3.67;;
42662;SDS011;44330;51.360;6.686;2023-06-26T08:55:23;16.20;;;4.75;;
42662;SDS011;44330;51.360;6.686;2023-06-26T08:57:52;11.50;;;3.90;;
42662;SDS011;44330;51.360;6.686;2023-06-26T09:00:20;12.30;;;3.97;;
42662;SDS011;44330;51.360;6.686;2023-06-26T09:02:46;13.32;;;3.67;;
42662;SDS011;44330;51.360;6.686;2023-06-26T09:05:14;10.70;;;3.60;;
42662;SDS011;44330;51.360;6.686;2023-06-26T09:07:40;13.52;;;3.67;;
42662;SDS011;44330;51.360;6.686;2023-06-26T09:10:06;18.23;;;3.88;;
42662;SDS011;44330;51.360;6.686;2023-06-26T09:12:32;7.90;;;3.50;;
42662;SDS011;44330;51.360;6.686;2023-06-26T09:14:58;12.18;;;3.83;;
42662;SDS011;44330;51.360;6.686;2023-06-26T09:17:38;12.52;;;3.53;;
42662;SDS011;44330;51.360;6.686;2023-06-26T09:20:07;9.23;;;3.30;;
42662;SDS011;44330;51.360;6.686;2023-06-26T09:22:38;11.35;;;3.47;;
42662;SDS011;44330;51.360;6.686;2023-06-26T09:25:06;9.77;;;3.50;;
42662;SDS011;44330;51.360;6.686;2023-06-26T09:27:32;9.98;;;3.03;;
42662;SDS011;44330;51.360;6.686;2023-06-26T09:29:58;12.50;;;4.00;;
42662;SDS011;44330;51.360;6.686;2023-06-26T09:32:24;9.15;;;3.38;;
42662;SDS011;44330;51.360;6.686;2023-06-26T09:34:51;15.32;;;4.15;;
42662;SDS011;44330;51.360;6.686;2023-06-26T09:37:17;12.02;;;3.90;;
42662;SDS011;44330;51.360;6.686;2023-06-26T09:39:43;10.73;;;3.67;;
42662;SDS011;44330;51.360;6.686;2023-06-26T09:42:09;11.60;;;3.47;;
42662;SDS011;44330;51.360;6.686;2023-06-26T09:44:34;9.15;;;3.30;;
42662;SDS011;44330;51.360;6.686;2023-06-26T09:47:03;9.82;;;3.15;;
42662;SDS011;44330;51.360;6.686;2023-06-26T09:49:29;7.88;;;3.38;;
42662;SDS011;44330;51.360;6.686;2023-06-26T09:51:56;7.65;;;3.20;;
42662;SDS011;44330;51.360;6.686;2023-06-26T09:54:21;8.48;;;3.00;;
42662;SDS011;44330;51.360;6.686;2023-06-26T09:56:48;13.23;;;3.33;;
42662;SDS011;44330;51.360;6.686;2023-06-26T09:59:14;9.38;;;3.22;;
42662;SDS011;44330;51.360;6.686;2023-06-26T10:01:41;8.93;;;3.45;;
42662;SDS011;44330;51.360;6.686;2023-06-26T10:04:09;9.30;;;3.22;;
42662;SDS011;44330;51.360;6.686;2023-06-26T10:06:40;13.10;;;3.72;;
42662;SDS011;44330;51.360;6.686;2023-06-26T10:09:10;7.13;;;3.10;;
42662;SDS011;44330;51.360;6.686;2023-06-26T10:11:45;6.47;;;3.00;;
42662;SDS011;44330;51.360;6.686;2023-06-26T10:14:16;12.63;;;3.13;;
42662;SDS011;44330;51.360;6.686;2023-06-26T10:16:42;6.72;;;2.75;;
42662;SDS011;44330;51.360;6.686;2023-06-26T10:19:10;12.10;;;3.17;;
42662;SDS011;44330;51.360;6.686;2023-06-26T10:21:36;10.50;;;2.80;;
42662;SDS011;44330;51.360;6.686;2023-06-26T10:24:03;9.07;;;2.53;;
42662;SDS011;44330;51.360;6.686;2023-06-26T10:26:31;9.05;;;2.90;;
42662;SDS011;44330;51.360;6.686;2023-06-26T10:29:00;5.80;;;3.20;;
42662;SDS011;44330;51.360;6.686;2023-06-26T10:31:27;6.00;;;2.63;;
42662;SDS011;44330;51.360;6.686;2023-06-26T10:33:54;6.65;;;2.35;;
42662;SDS011;44330;51.360;6.686;2023-06-26T10:36:26;11.40;;;2.88;;
42662;SDS011;44330;51.360;6.686;2023-06-26T10:39:04;7.85;;;2.50;;
42662;SDS011;44330;51.360;6.686;2023-06-26T10:41:36;7.20;;;2.83;;
42662;SDS011;44330;51.360;6.686;2023-06-26T10:44:06;6.00;;;2.58;;
42662;SDS011;44330;51.360;6.686;2023-06-26T10:49:15;7.60;;;2.15;;
42662;SDS011;44330;51.360;6.686;2023-06-26T10:51:48;8.15;;;2.35;;
42662;SDS011;44330;51.360;6.686;2023-06-26T10:54:15;6.82;;;2.38;;
42662;SDS011;44330;51.360;6.686;2023-06-26T10:59:16;5.35;;;2.20;;
42662;SDS011;44330;51.360;6.686;2023-06-26T11:01:43;6.13;;;2.10;;
42662;SDS011;44330;51.360;6.686;2023-06-26T11:04:10;6.57;;;1.90;;
42662;SDS011;44330;51.360;6.686;2023-06-26T11:06:37;5.07;;;1.60;;
42662;SDS011;44330;51.360;6.686;2023-06-26T11:14:20;4.40;;;1.70;;
42662;SDS011;44330;51.360;6.686;2023-06-26T11:16:47;8.70;;;1.67;;
42662;SDS011;44330;51.360;6.686;2023-06-26T11:19:14;3.38;;;1.55;;
42662;SDS011;44330;51.360;6.686;2023-06-26T11:21:41;5.75;;;1.75;;
42662;SDS011;44330;51.360;6.686;2023-06-26T11:24:07;4.53;;;1.95;;
42662;SDS011;44330;51.360;6.686;2023-06-26T11:29:46;2.08;;;1.48;;
42662;SDS011;44330;51.360;6.686;2023-06-26T11:32:46;3.58;;;1.50;;
42662;SDS011;44330;51.360;6.686;2023-06-26T11:35:13;5.05;;;1.63;;
42662;SDS011;44330;51.360;6.686;2023-06-26T11:37:58;7.18;;;1.40;;
42662;SDS011;44330;51.360;6.686;2023-06-26T11:40:34;6.75;;;1.42;;
42662;SDS011;44330;51.360;6.686;2023-06-26T11:46:07;4.85;;;1.20;;
42662;SDS011;44330;51.360;6.686;2023-06-26T11:48:36;8.73;;;1.67;;
42662;SDS011;44330;51.360;6.686;2023-06-26T11:59:20;4.13;;;1.20;;
42662;SDS011;44330;51.360;6.686;2023-06-26T12:01:58;5.88;;;1.38;;
42662;SDS011;44330;51.360;6.686;2023-06-26T12:04:34;2.75;;;1.00;;
42662;SDS011;44330;51.360;6.686;2023-06-26T12:07:13;2.97;;;1.40;;
42662;SDS011;44330;51.360;6.686;2023-06-26T12:09:41;4.20;;;1.48;;
42662;SDS011;44330;51.360;6.686;2023-06-26T12:18:42;9.30;;;1.27;;
42662;SDS011;44330;51.360;6.686;2023-06-26T12:20:57;3.08;;;1.25;;
42662;SDS011;44330;51.360;6.686;2023-06-26T12:23:26;2.72;;;1.08;;
42662;SDS011;44330;51.360;6.686;2023-06-26T12:26:15;2.97;;;1.20;;
42662;SDS011;44330;51.360;6.686;2023-06-26T12:29:06;4.43;;;1.33;;
42662;SDS011;44330;51.360;6.686;2023-06-26T12:37:17;4.63;;;1.15;;
42662;SDS011;44330;51.360;6.686;2023-06-26T12:39:53;4.20;;;1.10;;
42662;SDS011;44330;51.360;6.686;2023-06-26T12:42:26;8.82;;;1.58;;
42662;SDS011;44330;51.360;6.686;2023-06-26T12:44:56;6.43;;;1.45;;
42662;SDS011;44330;51.360;6.686;2023-06-26T12:50:04;4.63;;;1.10;;
42662;SDS011;44330;51.360;6.686;2023-06-26T12:52:32;5.35;;;1.27;;
42662;SDS011;44330;51.360;6.686;2023-06-26T12:55:01;2.33;;;1.00;;
42662;SDS011;44330;51.360;6.686;2023-06-26T12:57:27;4.32;;;1.33;;
42662;SDS011;44330;51.360;6.686;2023-06-26T13:00:19;5.18;;;1.42;;
42662;SDS011;44330;51.360;6.686;2023-06-26T13:02:45;3.85;;;1.10;;
42662;SDS011;44330;51.360;6.686;2023-06-26T13:05:17;13.07;;;1.88;;
42662;SDS011;44330;51.360;6.686;2023-06-26T13:08:25;5.10;;;1.20;;
42662;SDS011;44330;51.360;6.686;2023-06-26T13:13:38;4.35;;;1.50;;
42662;SDS011;44330;51.360;6.686;2023-06-26T13:16:04;4.13;;;1.20;;
42662;SDS011;44330;51.360;6.686;2023-06-26T13:18:31;2.13;;;1.13;;
42662;SDS011;44330;51.360;6.686;2023-06-26T13:20:57;3.17;;;1.20;;
42662;SDS011;44330;51.360;6.686;2023-06-26T13:23:24;4.00;;;1.52;;
42662;SDS011;44330;51.360;6.686;2023-06-26T13:25:49;5.28;;;1.15;;
42662;SDS011;44330;51.360;6.686;2023-06-26T13:28:15;6.55;;;1.65;;
42662;SDS011;44330;51.360;6.686;2023-06-26T13:30:41;4.38;;;1.25;;
42662;SDS011;44330;51.360;6.686;2023-06-26T13:33:06;12.00;;;1.92;;
42662;SDS011;44330;51.360;6.686;2023-06-26T13:35:32;7.15;;;1.33;;
42662;SDS011;44330;51.360;6.686;2023-06-26T13:37:57;4.15;;;1.00;;
42662;SDS011;44330;51.360;6.686;2023-06-26T13:40:23;4.05;;;1.13;;
42662;SDS011;44330;51.360;6.686;2023-06-26T13:42:48;5.85;;;1.27;;
42662;SDS011;44330;51.360;6.686;2023-06-26T13:45:14;5.30;;;1.10;;
42662;SDS011;44330;51.360;6.686;2023-06-26T13:47:40;2.22;;;1.20;;
42662;SDS011;44330;51.360;6.686;2023-06-26T13:50:07;3.10;;;1.30;;
42662;SDS011;44330;51.360;6.686;2023-06-26T13:52:34;4.38;;;1.30;;
42662;SDS011;44330;51.360;6.686;2023-06-26T13:55:00;2.38;;;1.10;;
42662;SDS011;44330;51.360;6.686;2023-06-26T13:57:29;5.05;;;1.50;;
42662;SDS011;44330;51.360;6.686;2023-06-26T13:59:55;2.92;;;0.90;;
42662;SDS011;44330;51.360;6.686;2023-06-26T14:02:20;6.45;;;1.17;;
42662;SDS011;44330;51.360;6.686;2023-06-26T14:04:46;2.40;;;1.02;;
42662;SDS011;44330;51.360;6.686;2023-06-26T14:07:11;3.65;;;1.30;;
42662;SDS011;44330;51.360;6.686;2023-06-26T14:09:37;1.20;;;1.00;;
42662;SDS011;44330;51.360;6.686;2023-06-26T14:12:03;4.13;;;1.30;;
42662;SDS011;44330;51.360;6.686;2023-06-26T14:14:29;2.80;;;1.00;;
42662;SDS011;44330;51.360;6.686;2023-06-26T14:16:54;2.10;;;1.15;;
42662;SDS011;44330;51.360;6.686;2023-06-26T14:19:20;4.90;;;1.13;;
42662;SDS011;44330;51.360;6.686;2023-06-26T14:21:45;3.75;;;1.27;;
42662;SDS011;44330;51.360;6.686;2023-06-26T14:24:11;2.90;;;1.20;;
42662;SDS011;44330;51.360;6.686;2023-06-26T14:26:36;4.35;;;1.35;;
42662;SDS011;44330;51.360;6.686;2023-06-26T14:29:03;5.45;;;1.20;;
42662;SDS011;44330;51.360;6.686;2023-06-26T14:31:29;9.38;;;1.55;;
42662;SDS011;44330;51.360;6.686;2023-06-26T14:33:54;2.42;;;1.20;;
42662;SDS011;44330;51.360;6.686;2023-06-26T14:36:20;5.25;;;1.27;;
42662;SDS011;44330;51.360;6.686;2023-06-26T14:38:46;3.72;;;1.30;;
42662;SDS011;44330;51.360;6.686;2023-06-26T14:41:11;2.63;;;1.20;;
42662;SDS011;44330;51.360;6.686;2023-06-26T14:43:40;1.80;;;1.05;;
42662;SDS011;44330;51.360;6.686;2023-06-26T14:48:31;5.78;;;1.20;;
42662;SDS011;44330;51.360;6.686;2023-06-26T14:50:57;3.08;;;0.80;;
42662;SDS011;44330;51.360;6.686;2023-06-26T14:53:23;3.17;;;1.10;;
42662;SDS011;44330;51.360;6.686;2023-06-26T14:55:50;2.17;;;1.08;;
42662;SDS011;44330;51.360;6.686;2023-06-26T14:58:16;3.50;;;1.38;;
42662;SDS011;44330;51.360;6.686;2023-06-26T15:00:42;1.67;;;0.95;;
42662;SDS011;44330;51.360;6.686;2023-06-26T15:03:08;3.42;;;1.25;;
42662;SDS011;44330;51.360;6.686;2023-06-26T15:05:34;4.57;;;1.40;;
42662;SDS011;44330;51.360;6.686;2023-06-26T15:08:00;3.20;;;1.20;;
42662;SDS011;44330;51.360;6.686;2023-06-26T15:10:25;3.00;;;1.20;;
42662;SDS011;44330;51.360;6.686;2023-06-26T15:12:51;6.88;;;0.95;;
42662;SDS011;44330;51.360;6.686;2023-06-26T15:15:17;4.32;;;1.13;;
42662;SDS011;44330;51.360;6.686;2023-06-26T15:17:43;6.65;;;1.45;;
42662;SDS011;44330;51.360;6.686;2023-06-26T15:20:09;5.28;;;1.55;;
42662;SDS011;44330;51.360;6.686;2023-06-26T15:22:34;4.15;;;1.50;;
42662;SDS011;44330;51.360;6.686;2023-06-26T15:25:00;3.35;;;0.98;;
42662;SDS011;44330;51.360;6.686;2023-06-26T15:27:26;3.83;;;1.17;;
42662;SDS011;44330;51.360;6.686;2023-06-26T15:29:51;3.50;;;1.38;;